sensor_id;sensor_type;location;lat;lon;timestamp;pressure;altitude;pressure_sealevel;temperature;humidity
55191;BME280;41070;50.360;18.742;2023-04-16T00:02:00;98317.38;;;6.97;88.79
55191;BME280;41070;50.360;18.742;2023-04-16T00:08:06;98322.54;;;7.01;89.44
55191;BME280;41070;50.360;18.742;2023-04-16T00:11:13;98324.91;;;7.06;89.53
55191;BME280;41070;50.360;18.742;2023-04-16T00:14:20;98329.86;;;7.10;89.79
55191;BME280;41070;50.360;18.742;2023-04-16T00:17:26;98326.31;;;7.15;89.77
55191;BME280;41070;50.360;18.742;2023-04-16T00:20:33;98326.80;;;7.20;89.91
55191;BME280;41070;50.360;18.742;2023-04-16T00:23:39;98326.18;;;7.24;89.68
55191;BME280;41070;50.360;18.742;2023-04-16T00:26:46;98323.85;;;7.25;89.54
55191;BME280;41070;50.360;18.742;2023-04-16T00:29:53;98327.03;;;7.26;89.74
55191;BME280;41070;50.360;18.742;2023-04-16T00:33:00;98329.27;;;7.29;89.79
55191;BME280;41070;50.360;18.742;2023-04-16T00:36:07;98333.50;;;7.31;89.64
55191;BME280;41070;50.360;18.742;2023-04-16T00:39:13;98333.28;;;7.31;89.60
55191;BME280;41070;50.360;18.742;2023-04-16T00:42:20;98329.53;;;7.31;89.49
55191;BME280;41070;50.360;18.742;2023-04-16T00:45:27;98329.17;;;7.34;89.86
55191;BME280;41070;50.360;18.742;2023-04-16T00:48:34;98327.00;;;7.34;89.84
55191;BME280;41070;50.360;18.742;2023-04-16T00:51:40;98325.16;;;7.41;90.01
55191;BME280;41070;50.360;18.742;2023-04-16T00:54:48;98330.36;;;7.46;90.24
55191;BME280;41070;50.360;18.742;2023-04-16T00:57:54;98334.09;;;7.47;90.00
55191;BME280;41070;50.360;18.742;2023-04-16T01:01:01;98335.09;;;7.51;89.95
55191;BME280;41070;50.360;18.742;2023-04-16T01:04:20;98334.47;;;7.46;89.66
55191;BME280;41070;50.360;18.742;2023-04-16T01:07:26;98332.63;;;7.43;89.89
55191;BME280;41070;50.360;18.742;2023-04-16T01:13:32;98340.61;;;7.37;89.80
55191;BME280;41070;50.360;18.742;2023-04-16T01:16:39;98339.52;;;7.36;89.83
55191;BME280;41070;50.360;18.742;2023-04-16T01:19:46;98339.59;;;7.36;89.83
55191;BME280;41070;50.360;18.742;2023-04-16T01:22:52;98342.19;;;7.34;90.09
55191;BME280;41070;50.360;18.742;2023-04-16T01:25:59;98337.84;;;7.31;90.16
55191;BME280;41070;50.360;18.742;2023-04-16T01:29:05;98337.33;;;7.32;90.49
55191;BME280;41070;50.360;18.742;2023-04-16T01:35:18;98341.08;;;7.35;90.56
55191;BME280;41070;50.360;18.742;2023-04-16T01:38:25;98339.86;;;7.30;90.33
55191;BME280;41070;50.360;18.742;2023-04-16T01:41:32;98342.27;;;7.32;90.86
55191;BME280;41070;50.360;18.742;2023-04-16T01:44:38;98346.43;;;7.36;91.10
55191;BME280;41070;50.360;18.742;2023-04-16T01:47:47;98347.97;;;7.40;91.19
55191;BME280;41070;50.360;18.742;2023-04-16T01:50:52;98352.95;;;7.46;91.24
55191;BME280;41070;50.360;18.742;2023-04-16T01:53:58;98351.05;;;7.46;91.21
55191;BME280;41070;50.360;18.742;2023-04-16T01:57:05;98353.25;;;7.48;91.21
55191;BME280;41070;50.360;18.742;2023-04-16T02:00:11;98356.23;;;7.50;91.36
55191;BME280;41070;50.360;18.742;2023-04-16T02:03:18;98356.13;;;7.54;91.36
55191;BME280;41070;50.360;18.742;2023-04-16T02:09:56;98356.98;;;7.59;91.53
55191;BME280;41070;50.360;18.742;2023-04-16T02:12:39;98362.59;;;7.65;91.67
55191;BME280;41070;50.360;18.742;2023-04-16T02:15:46;98366.16;;;7.72;91.75
55191;BME280;41070;50.360;18.742;2023-04-16T02:18:52;98371.04;;;7.76;91.72
55191;BME280;41070;50.360;18.742;2023-04-16T02:25:07;98374.84;;;7.87;91.77
55191;BME280;41070;50.360;18.742;2023-04-16T02:28:14;98371.84;;;7.91;91.53
55191;BME280;41070;50.360;18.742;2023-04-16T02:31:20;98378.63;;;7.94;91.68
55191;BME280;41070;50.360;18.742;2023-04-16T02:34:21;98375.29;;;7.96;91.28
55191;BME280;41070;50.360;18.742;2023-04-16T02:37:27;98375.50;;;7.93;91.06
55191;BME280;41070;50.360;18.742;2023-04-16T02:40:35;98373.94;;;7.86;90.99
55191;BME280;41070;50.360;18.742;2023-04-16T02:43:41;98378.92;;;7.80;90.73
55191;BME280;41070;50.360;18.742;2023-04-16T02:46:48;98379.22;;;7.73;90.90
55191;BME280;41070;50.360;18.742;2023-04-16T02:49:54;98380.72;;;7.65;91.02
55191;BME280;41070;50.360;18.742;2023-04-16T02:53:01;98385.02;;;7.60;90.94
55191;BME280;41070;50.360;18.742;2023-04-16T02:59:17;98384.80;;;7.47;91.36
55191;BME280;41070;50.360;18.742;2023-04-16T03:02:24;98380.89;;;7.46;91.50
55191;BME280;41070;50.360;18.742;2023-04-16T03:05:30;98384.63;;;7.44;91.71
55191;BME280;41070;50.360;18.742;2023-04-16T03:08:36;98386.38;;;7.44;91.79
55191;BME280;41070;50.360;18.742;2023-04-16T03:11:43;98388.05;;;7.44;91.87
55191;BME280;41070;50.360;18.742;2023-04-16T03:14:50;98389.61;;;7.41;91.88
55191;BME280;41070;50.360;18.742;2023-04-16T03:17:57;98396.20;;;7.40;92.32
55191;BME280;41070;50.360;18.742;2023-04-16T03:21:03;98404.23;;;7.40;92.56
55191;BME280;41070;50.360;18.742;2023-04-16T03:24:08;98409.11;;;7.42;92.72
55191;BME280;41070;50.360;18.742;2023-04-16T03:27:15;98410.17;;;7.42;92.90
55191;BME280;41070;50.360;18.742;2023-04-16T03:30:22;98412.45;;;7.44;93.15
55191;BME280;41070;50.360;18.742;2023-04-16T03:33:29;98415.52;;;7.45;93.08
55191;BME280;41070;50.360;18.742;2023-04-16T03:36:36;98422.11;;;7.46;93.10
55191;BME280;41070;50.360;18.742;2023-04-16T03:39:42;98424.77;;;7.44;93.46
55191;BME280;41070;50.360;18.742;2023-04-16T03:42:49;98431.73;;;7.45;93.46
55191;BME280;41070;50.360;18.742;2023-04-16T03:45:56;98436.17;;;7.48;93.69
55191;BME280;41070;50.360;18.742;2023-04-16T03:49:03;98439.80;;;7.52;93.41
55191;BME280;41070;50.360;18.742;2023-04-16T03:52:12;98443.16;;;7.53;93.43
55191;BME280;41070;50.360;18.742;2023-04-16T03:55:17;98450.53;;;7.52;93.20
55191;BME280;41070;50.360;18.742;2023-04-16T03:58:26;98454.05;;;7.50;93.19
55191;BME280;41070;50.360;18.742;2023-04-16T04:01:32;98457.10;;;7.50;93.30
55191;BME280;41070;50.360;18.742;2023-04-16T04:04:39;98459.25;;;7.51;93.28
55191;BME280;41070;50.360;18.742;2023-04-16T04:07:46;98460.74;;;7.57;93.27
55191;BME280;41070;50.360;18.742;2023-04-16T04:10:53;98467.15;;;7.63;93.17
55191;BME280;41070;50.360;18.742;2023-04-16T04:13:59;98474.39;;;7.62;92.79
55191;BME280;41070;50.360;18.742;2023-04-16T04:17:06;98479.91;;;7.61;92.84
55191;BME280;41070;50.360;18.742;2023-04-16T04:20:13;98475.77;;;7.58;92.95
55191;BME280;41070;50.360;18.742;2023-04-16T04:23:19;98479.78;;;7.53;92.86
55191;BME280;41070;50.360;18.742;2023-04-16T04:26:26;98480.63;;;7.53;92.78
55191;BME280;41070;50.360;18.742;2023-04-16T04:29:32;98479.50;;;7.56;92.90
55191;BME280;41070;50.360;18.742;2023-04-16T04:32:39;98481.94;;;7.58;92.93
55191;BME280;41070;50.360;18.742;2023-04-16T04:35:46;98482.00;;;7.59;92.72
55191;BME280;41070;50.360;18.742;2023-04-16T04:41:52;98489.70;;;7.75;92.97
55191;BME280;41070;50.360;18.742;2023-04-16T04:44:59;98492.19;;;7.83;92.83
55191;BME280;41070;50.360;18.742;2023-04-16T04:54:04;98498.23;;;7.87;92.16
55191;BME280;41070;50.360;18.742;2023-04-16T04:57:10;98504.63;;;7.86;92.35
55191;BME280;41070;50.360;18.742;2023-04-16T05:03:24;98513.73;;;7.81;92.01
55191;BME280;41070;50.360;18.742;2023-04-16T05:06:30;98518.27;;;7.76;92.22
55191;BME280;41070;50.360;18.742;2023-04-16T05:09:37;98517.02;;;7.73;92.35
55191;BME280;41070;50.360;18.742;2023-04-16T05:12:44;98521.26;;;7.72;92.48
55191;BME280;41070;50.360;18.742;2023-04-16T05:15:51;98533.02;;;7.69;92.25
55191;BME280;41070;50.360;18.742;2023-04-16T05:19:01;98541.31;;;7.63;92.41
55191;BME280;41070;50.360;18.742;2023-04-16T05:22:07;98545.09;;;7.66;92.81
55191;BME280;41070;50.360;18.742;2023-04-16T05:25:16;98547.73;;;7.72;92.60
55191;BME280;41070;50.360;18.742;2023-04-16T05:28:23;98551.36;;;7.77;92.73
55191;BME280;41070;50.360;18.742;2023-04-16T05:34:21;98552.00;;;7.91;92.35
55191;BME280;41070;50.360;18.742;2023-04-16T05:37:50;98547.37;;;8.01;92.52
55191;BME280;41070;50.360;18.742;2023-04-16T05:40:37;98545.63;;;8.15;92.32
55191;BME280;41070;50.360;18.742;2023-04-16T05:43:44;98547.15;;;8.26;91.95
55191;BME280;41070;50.360;18.742;2023-04-16T05:46:51;98551.95;;;8.34;91.54
55191;BME280;41070;50.360;18.742;2023-04-16T05:49:58;98554.27;;;8.46;91.67
55191;BME280;41070;50.360;18.742;2023-04-16T05:53:05;98564.33;;;8.64;91.65
55191;BME280;41070;50.360;18.742;2023-04-16T05:56:11;98566.98;;;8.75;91.16
55191;BME280;41070;50.360;18.742;2023-04-16T06:02:24;98571.89;;;8.92;91.13
55191;BME280;41070;50.360;18.742;2023-04-16T06:05:31;98572.77;;;8.88;90.19
55191;BME280;41070;50.360;18.742;2023-04-16T06:08:38;98574.46;;;8.82;90.53
55191;BME280;41070;50.360;18.742;2023-04-16T06:11:44;98573.08;;;8.82;90.72
55191;BME280;41070;50.360;18.742;2023-04-16T06:18:00;98581.58;;;9.13;91.38
55191;BME280;41070;50.360;18.742;2023-04-16T06:21:07;98582.36;;;9.30;90.90
55191;BME280;41070;50.360;18.742;2023-04-16T06:24:14;98590.19;;;9.35;90.53
55191;BME280;41070;50.360;18.742;2023-04-16T06:27:46;98595.52;;;9.31;89.76
55191;BME280;41070;50.360;18.742;2023-04-16T06:30:41;98597.77;;;9.33;90.54
55191;BME280;41070;50.360;18.742;2023-04-16T06:33:47;98597.81;;;9.35;90.59
55191;BME280;41070;50.360;18.742;2023-04-16T06:36:54;98597.77;;;9.47;90.60
55191;BME280;41070;50.360;18.742;2023-04-16T06:40:01;98599.09;;;9.54;90.58
55191;BME280;41070;50.360;18.742;2023-04-16T06:43:14;98603.92;;;9.59;91.03
55191;BME280;41070;50.360;18.742;2023-04-16T06:46:21;98601.34;;;9.67;90.92
55191;BME280;41070;50.360;18.742;2023-04-16T06:49:28;98604.77;;;9.66;90.76
55191;BME280;41070;50.360;18.742;2023-04-16T06:52:35;98604.80;;;9.73;90.86
55191;BME280;41070;50.360;18.742;2023-04-16T06:55:43;98604.75;;;9.79;90.90
55191;BME280;41070;50.360;18.742;2023-04-16T06:58:50;98605.65;;;9.80;90.36
55191;BME280;41070;50.360;18.742;2023-04-16T07:01:57;98610.34;;;9.82;89.77
55191;BME280;41070;50.360;18.742;2023-04-16T07:05:04;98608.38;;;9.93;89.66
55191;BME280;41070;50.360;18.742;2023-04-16T07:11:44;98608.00;;;10.25;89.74
55191;BME280;41070;50.360;18.742;2023-04-16T07:18:45;98621.88;;;10.29;88.78
55191;BME280;41070;50.360;18.742;2023-04-16T07:21:28;98623.91;;;10.41;88.94
55191;BME280;41070;50.360;18.742;2023-04-16T07:24:35;98624.98;;;10.41;88.43
55191;BME280;41070;50.360;18.742;2023-04-16T07:30:49;98630.80;;;10.28;88.23
55191;BME280;41070;50.360;18.742;2023-04-16T07:33:56;98628.90;;;10.45;88.34
55191;BME280;41070;50.360;18.742;2023-04-16T07:37:03;98633.10;;;10.67;88.09
55191;BME280;41070;50.360;18.742;2023-04-16T07:40:15;98631.71;;;10.82;87.69
55191;BME280;41070;50.360;18.742;2023-04-16T07:43:26;98635.00;;;10.99;87.01
55191;BME280;41070;50.360;18.742;2023-04-16T07:46:33;98631.19;;;11.15;86.89
55191;BME280;41070;50.360;18.742;2023-04-16T07:49:40;98629.30;;;11.19;86.38
55191;BME280;41070;50.360;18.742;2023-04-16T07:52:47;98627.56;;;11.23;85.54
55191;BME280;41070;50.360;18.742;2023-04-16T07:55:57;98629.36;;;11.25;84.61
55191;BME280;41070;50.360;18.742;2023-04-16T07:59:04;98625.08;;;11.37;85.61
55191;BME280;41070;50.360;18.742;2023-04-16T08:02:13;98629.41;;;11.42;84.12
55191;BME280;41070;50.360;18.742;2023-04-16T08:05:21;98633.70;;;11.43;82.97
55191;BME280;41070;50.360;18.742;2023-04-16T08:08:30;98639.36;;;11.42;82.72
55191;BME280;41070;50.360;18.742;2023-04-16T08:12:03;98646.75;;;11.37;82.64
55191;BME280;41070;50.360;18.742;2023-04-16T08:14:58;98649.47;;;11.39;83.17
55191;BME280;41070;50.360;18.742;2023-04-16T08:18:07;98654.95;;;11.48;82.73
55191;BME280;41070;50.360;18.742;2023-04-16T08:21:12;98657.66;;;11.56;81.36
55191;BME280;41070;50.360;18.742;2023-04-16T08:24:20;98661.36;;;11.70;82.04
55191;BME280;41070;50.360;18.742;2023-04-16T08:27:27;98664.92;;;11.74;80.17
55191;BME280;41070;50.360;18.742;2023-04-16T08:30:58;98668.35;;;11.73;80.36
55191;BME280;41070;50.360;18.742;2023-04-16T08:33:50;98668.77;;;11.69;80.41
55191;BME280;41070;50.360;18.742;2023-04-16T08:36:57;98674.65;;;11.68;80.66
55191;BME280;41070;50.360;18.742;2023-04-16T08:40:28;98681.65;;;11.67;80.63
55191;BME280;41070;50.360;18.742;2023-04-16T08:43:11;98680.58;;;11.66;80.48
55191;BME280;41070;50.360;18.742;2023-04-16T08:46:19;98683.70;;;11.56;80.02
55191;BME280;41070;50.360;18.742;2023-04-16T08:49:26;98686.67;;;11.55;80.63
55191;BME280;41070;50.360;18.742;2023-04-16T08:58:58;98688.34;;;11.42;80.05
55191;BME280;41070;50.360;18.742;2023-04-16T09:02:07;98689.90;;;11.43;80.35
55191;BME280;41070;50.360;18.742;2023-04-16T09:05:15;98693.48;;;11.46;80.18
55191;BME280;41070;50.360;18.742;2023-04-16T09:08:23;98697.27;;;11.53;80.40
55191;BME280;41070;50.360;18.742;2023-04-16T09:11:31;98695.64;;;11.78;79.91
55191;BME280;41070;50.360;18.742;2023-04-16T09:15:02;98699.71;;;11.97;80.03
55191;BME280;41070;50.360;18.742;2023-04-16T09:17:47;98698.86;;;12.11;78.49
55191;BME280;41070;50.360;18.742;2023-04-16T09:21:19;98702.16;;;12.14;78.14
55191;BME280;41070;50.360;18.742;2023-04-16T09:24:02;98702.46;;;12.32;78.42
55191;BME280;41070;50.360;18.742;2023-04-16T09:27:09;98701.98;;;12.53;78.81
55191;BME280;41070;50.360;18.742;2023-04-16T09:33:41;98705.05;;;12.88;76.14
55191;BME280;41070;50.360;18.742;2023-04-16T09:43:25;98705.93;;;13.27;75.03
55191;BME280;41070;50.360;18.742;2023-04-16T09:46:32;98710.88;;;13.21;73.98
55191;BME280;41070;50.360;18.742;2023-04-16T09:52:47;98715.78;;;13.03;74.85
55191;BME280;41070;50.360;18.742;2023-04-16T09:55:52;98716.45;;;12.86;75.05
55191;BME280;41070;50.360;18.742;2023-04-16T09:58:59;98711.28;;;12.77;74.64
55191;BME280;41070;50.360;18.742;2023-04-16T10:02:06;98710.73;;;13.01;74.90
55191;BME280;41070;50.360;18.742;2023-04-16T10:05:13;98716.65;;;13.17;73.57
55191;BME280;41070;50.360;18.742;2023-04-16T10:11:31;98712.47;;;13.39;72.67
55191;BME280;41070;50.360;18.742;2023-04-16T10:14:38;98713.01;;;13.49;72.82
55191;BME280;41070;50.360;18.742;2023-04-16T10:17:46;98711.14;;;13.71;71.75
55191;BME280;41070;50.360;18.742;2023-04-16T10:20:53;98715.34;;;13.94;72.34
55191;BME280;41070;50.360;18.742;2023-04-16T10:23:59;98716.60;;;14.06;71.68
55191;BME280;41070;50.360;18.742;2023-04-16T10:27:06;98717.20;;;14.16;70.85
55191;BME280;41070;50.360;18.742;2023-04-16T10:30:13;98717.52;;;14.39;71.12
55191;BME280;41070;50.360;18.742;2023-04-16T10:33:21;98722.14;;;14.61;70.00
55191;BME280;41070;50.360;18.742;2023-04-16T10:37:07;98727.07;;;14.68;69.42
55191;BME280;41070;50.360;18.742;2023-04-16T10:39:43;98732.38;;;14.74;69.49
55191;BME280;41070;50.360;18.742;2023-04-16T10:42:51;98733.47;;;14.74;69.19
55191;BME280;41070;50.360;18.742;2023-04-16T10:46:00;98732.39;;;14.58;68.06
55191;BME280;41070;50.360;18.742;2023-04-16T10:49:28;98732.54;;;14.47;68.78
55191;BME280;41070;50.360;18.742;2023-04-16T10:55:23;98737.98;;;13.97;68.91
55191;BME280;41070;50.360;18.742;2023-04-16T11:05:01;98739.93;;;13.89;69.48
55191;BME280;41070;50.360;18.742;2023-04-16T11:11:14;98743.64;;;13.66;68.21
55191;BME280;41070;50.360;18.742;2023-04-16T11:14:20;98736.54;;;13.68;68.31
55191;BME280;41070;50.360;18.742;2023-04-16T11:17:31;98739.33;;;13.70;67.99
55191;BME280;41070;50.360;18.742;2023-04-16T11:23:30;98733.59;;;13.87;68.06
55191;BME280;41070;50.360;18.742;2023-04-16T11:27:07;98733.86;;;13.88;67.66
55191;BME280;41070;50.360;18.742;2023-04-16T11:30:32;98734.38;;;13.72;68.02
55191;BME280;41070;50.360;18.742;2023-04-16T11:36:23;98735.13;;;13.76;67.79
55191;BME280;41070;50.360;18.742;2023-04-16T11:42:32;98738.38;;;14.29;67.06
55191;BME280;41070;50.360;18.742;2023-04-16T11:51:54;98739.27;;;14.71;64.36
55191;BME280;41070;50.360;18.742;2023-04-16T11:55:01;98740.27;;;14.77;64.92
55191;BME280;41070;50.360;18.742;2023-04-16T11:58:32;98742.29;;;14.85;63.80
55191;BME280;41070;50.360;18.742;2023-04-16T12:01:18;98746.21;;;14.84;62.81
55191;BME280;41070;50.360;18.742;2023-04-16T12:04:32;98745.48;;;14.88;62.44
55191;BME280;41070;50.360;18.742;2023-04-16T12:07:47;98746.80;;;14.96;62.55
55191;BME280;41070;50.360;18.742;2023-04-16T12:17:34;98742.33;;;15.47;61.27
55191;BME280;41070;50.360;18.742;2023-04-16T12:20:17;98741.10;;;15.65;58.77
55191;BME280;41070;50.360;18.742;2023-04-16T12:23:45;98735.98;;;15.75;58.27
55191;BME280;41070;50.360;18.742;2023-04-16T12:26:43;98734.55;;;15.73;58.02
55191;BME280;41070;50.360;18.742;2023-04-16T12:30:03;98734.55;;;15.47;56.85
55191;BME280;41070;50.360;18.742;2023-04-16T12:36:41;98738.85;;;14.93;57.93
55191;BME280;41070;50.360;18.742;2023-04-16T12:39:47;98738.35;;;14.78;58.49
55191;BME280;41070;50.360;18.742;2023-04-16T12:42:54;98733.77;;;14.68;58.89
55191;BME280;41070;50.360;18.742;2023-04-16T12:55:46;98732.27;;;14.49;61.07
55191;BME280;41070;50.360;18.742;2023-04-16T13:02:00;98733.52;;;14.59;62.41
55191;BME280;41070;50.360;18.742;2023-04-16T13:05:09;98733.80;;;14.54;63.17
55191;BME280;41070;50.360;18.742;2023-04-16T13:08:15;98731.88;;;14.48;63.63
55191;BME280;41070;50.360;18.742;2023-04-16T13:11:31;98726.73;;;14.43;63.68
55191;BME280;41070;50.360;18.742;2023-04-16T13:14:37;98725.25;;;14.36;63.92
55191;BME280;41070;50.360;18.742;2023-04-16T13:17:46;98726.80;;;14.32;63.73
55191;BME280;41070;50.360;18.742;2023-04-16T13:20:54;98724.92;;;14.23;63.46
55191;BME280;41070;50.360;18.742;2023-04-16T13:24:00;98731.89;;;14.11;63.85
55191;BME280;41070;50.360;18.742;2023-04-16T13:27:07;98729.52;;;14.11;63.96
55191;BME280;41070;50.360;18.742;2023-04-16T13:30:39;98724.87;;;14.15;64.52
55191;BME280;41070;50.360;18.742;2023-04-16T13:33:22;98726.52;;;14.11;63.98
55191;BME280;41070;50.360;18.742;2023-04-16T13:36:29;98723.01;;;14.08;64.09
55191;BME280;41070;50.360;18.742;2023-04-16T13:40:02;98726.08;;;14.07;64.82
55191;BME280;41070;50.360;18.742;2023-04-16T13:42:55;98723.07;;;14.02;65.13
55191;BME280;41070;50.360;18.742;2023-04-16T13:49:01;98717.94;;;13.97;66.07
55191;BME280;41070;50.360;18.742;2023-04-16T13:52:07;98719.71;;;14.04;66.87
55191;BME280;41070;50.360;18.742;2023-04-16T13:55:36;98720.33;;;14.25;65.88
55191;BME280;41070;50.360;18.742;2023-04-16T13:58:42;98721.48;;;14.43;65.78
55191;BME280;41070;50.360;18.742;2023-04-16T14:01:49;98720.42;;;14.65;64.32
55191;BME280;41070;50.360;18.742;2023-04-16T14:04:56;98721.80;;;14.83;63.86
55191;BME280;41070;50.360;18.742;2023-04-16T14:08:05;98720.31;;;14.96;63.02
55191;BME280;41070;50.360;18.742;2023-04-16T14:11:12;98718.40;;;14.95;62.19
55191;BME280;41070;50.360;18.742;2023-04-16T14:14:45;98716.97;;;14.98;62.25
55191;BME280;41070;50.360;18.742;2023-04-16T14:17:48;98718.83;;;15.06;60.73
55191;BME280;41070;50.360;18.742;2023-04-16T14:20:54;98714.95;;;15.05;60.12
55191;BME280;41070;50.360;18.742;2023-04-16T14:24:22;98711.83;;;15.07;59.53
55191;BME280;41070;50.360;18.742;2023-04-16T14:27:29;98714.23;;;15.16;59.70
55191;BME280;41070;50.360;18.742;2023-04-16T14:30:36;98714.70;;;15.25;58.47
55191;BME280;41070;50.360;18.742;2023-04-16T14:33:43;98716.55;;;15.32;57.85
55191;BME280;41070;50.360;18.742;2023-04-16T14:36:31;98715.64;;;15.35;57.33
55191;BME280;41070;50.360;18.742;2023-04-16T14:42:41;98710.27;;;15.37;57.03
55191;BME280;41070;50.360;18.742;2023-04-16T14:45:48;98711.99;;;15.41;56.44
55191;BME280;41070;50.360;18.742;2023-04-16T14:48:55;98710.85;;;15.49;56.56
55191;BME280;41070;50.360;18.742;2023-04-16T14:52:26;98715.23;;;15.57;55.06
55191;BME280;41070;50.360;18.742;2023-04-16T14:55:11;98715.05;;;15.55;54.53
55191;BME280;41070;50.360;18.742;2023-04-16T14:58:19;98715.77;;;15.56;53.72
55191;BME280;41070;50.360;18.742;2023-04-16T15:01:26;98712.48;;;15.60;54.19
55191;BME280;41070;50.360;18.742;2023-04-16T15:04:32;98713.71;;;15.70;54.17
55191;BME280;41070;50.360;18.742;2023-04-16T15:07:39;98710.19;;;15.71;53.78
55191;BME280;41070;50.360;18.742;2023-04-16T15:10:47;98715.75;;;15.65;53.13
55191;BME280;41070;50.360;18.742;2023-04-16T15:13:53;98715.11;;;15.53;54.17
55191;BME280;41070;50.360;18.742;2023-04-16T15:17:00;98712.86;;;15.51;54.47
55191;BME280;41070;50.360;18.742;2023-04-16T15:20:07;98714.94;;;15.50;53.59
55191;BME280;41070;50.360;18.742;2023-04-16T15:23:14;98716.42;;;15.44;53.73
55191;BME280;41070;50.360;18.742;2023-04-16T15:26:23;98716.15;;;15.40;53.23
55191;BME280;41070;50.360;18.742;2023-04-16T15:29:28;98715.39;;;15.32;53.87
55191;BME280;41070;50.360;18.742;2023-04-16T15:32:38;98717.96;;;15.35;53.93
55191;BME280;41070;50.360;18.742;2023-04-16T15:35:45;98715.20;;;15.37;53.86
55191;BME280;41070;50.360;18.742;2023-04-16T15:38:51;98716.64;;;15.35;54.03
55191;BME280;41070;50.360;18.742;2023-04-16T15:41:58;98718.05;;;15.28;54.94
55191;BME280;41070;50.360;18.742;2023-04-16T15:45:05;98720.98;;;15.31;54.84
55191;BME280;41070;50.360;18.742;2023-04-16T15:48:12;98721.33;;;15.25;55.00
55191;BME280;41070;50.360;18.742;2023-04-16T15:54:18;98728.46;;;14.93;55.92
55191;BME280;41070;50.360;18.742;2023-04-16T15:57:25;98727.88;;;14.90;55.94
55191;BME280;41070;50.360;18.742;2023-04-16T16:00:33;98727.82;;;14.91;56.72
55191;BME280;41070;50.360;18.742;2023-04-16T16:03:41;98729.98;;;14.85;57.37
55191;BME280;41070;50.360;18.742;2023-04-16T16:06:48;98734.10;;;14.82;57.95
55191;BME280;41070;50.360;18.742;2023-04-16T16:09:56;98735.95;;;14.77;57.90
55191;BME280;41070;50.360;18.742;2023-04-16T16:13:04;98736.66;;;14.70;58.04
55191;BME280;41070;50.360;18.742;2023-04-16T16:16:06;98737.56;;;14.64;57.80
55191;BME280;41070;50.360;18.742;2023-04-16T16:19:13;98740.46;;;14.57;57.80
55191;BME280;41070;50.360;18.742;2023-04-16T16:22:19;98743.27;;;14.49;57.02
55191;BME280;41070;50.360;18.742;2023-04-16T16:25:29;98743.16;;;14.41;57.06
55191;BME280;41070;50.360;18.742;2023-04-16T16:28:36;98746.42;;;14.38;56.99
55191;BME280;41070;50.360;18.742;2023-04-16T16:31:43;98743.55;;;14.35;57.49
55191;BME280;41070;50.360;18.742;2023-04-16T16:37:51;98747.55;;;14.26;57.92
55191;BME280;41070;50.360;18.742;2023-04-16T16:41:03;98746.30;;;14.19;58.59
55191;BME280;41070;50.360;18.742;2023-04-16T16:44:12;98750.45;;;14.13;59.23
55191;BME280;41070;50.360;18.742;2023-04-16T16:50:18;98754.44;;;13.98;59.54
55191;BME280;41070;50.360;18.742;2023-04-16T16:53:25;98754.79;;;13.95;60.05
55191;BME280;41070;50.360;18.742;2023-04-16T16:56:31;98750.31;;;13.95;59.80
55191;BME280;41070;50.360;18.742;2023-04-16T16:59:38;98753.76;;;13.94;59.85
55191;BME280;41070;50.360;18.742;2023-04-16T17:05:54;98753.41;;;13.87;60.98
55191;BME280;41070;50.360;18.742;2023-04-16T17:09:04;98753.81;;;13.82;61.47
55191;BME280;41070;50.360;18.742;2023-04-16T17:12:12;98758.66;;;13.73;62.21
55191;BME280;41070;50.360;18.742;2023-04-16T17:15:44;98760.70;;;13.63;62.77
55191;BME280;41070;50.360;18.742;2023-04-16T17:18:27;98763.45;;;13.48;63.07
55191;BME280;41070;50.360;18.742;2023-04-16T17:21:34;98769.60;;;13.32;63.62
55191;BME280;41070;50.360;18.742;2023-04-16T17:24:41;98771.80;;;13.19;64.16
55191;BME280;41070;50.360;18.742;2023-04-16T17:27:49;98768.42;;;13.07;64.67
55191;BME280;41070;50.360;18.742;2023-04-16T17:30:56;98769.31;;;12.94;65.34
55191;BME280;41070;50.360;18.742;2023-04-16T17:34:07;98775.22;;;12.82;65.68
55191;BME280;41070;50.360;18.742;2023-04-16T17:37:14;98774.88;;;12.70;66.01
55191;BME280;41070;50.360;18.742;2023-04-16T17:40:19;98778.61;;;12.58;66.44
55191;BME280;41070;50.360;18.742;2023-04-16T17:43:26;98781.36;;;12.47;66.79
55191;BME280;41070;50.360;18.742;2023-04-16T17:49:45;98787.66;;;12.23;67.15
55191;BME280;41070;50.360;18.742;2023-04-16T17:53:16;98789.65;;;12.13;67.10
55191;BME280;41070;50.360;18.742;2023-04-16T17:56:31;98791.05;;;12.01;67.26
55191;BME280;41070;50.360;18.742;2023-04-16T17:59:38;98799.48;;;11.95;67.41
55191;BME280;41070;50.360;18.742;2023-04-16T18:02:45;98800.45;;;11.86;67.51
55191;BME280;41070;50.360;18.742;2023-04-16T18:05:53;98803.45;;;11.77;67.47
55191;BME280;41070;50.360;18.742;2023-04-16T18:09:00;98812.23;;;11.71;67.70
55191;BME280;41070;50.360;18.742;2023-04-16T18:12:29;98813.96;;;11.60;67.78
55191;BME280;41070;50.360;18.742;2023-04-16T18:15:35;98820.04;;;11.53;68.03
55191;BME280;41070;50.360;18.742;2023-04-16T18:18:44;98820.80;;;11.47;68.06
55191;BME280;41070;50.360;18.742;2023-04-16T18:21:54;98827.06;;;11.40;68.31
55191;BME280;41070;50.360;18.742;2023-04-16T18:25:42;98826.54;;;11.35;68.43
55191;BME280;41070;50.360;18.742;2023-04-16T18:28:18;98831.29;;;11.29;68.64
55191;BME280;41070;50.360;18.742;2023-04-16T18:31:25;98834.06;;;11.27;69.05
55191;BME280;41070;50.360;18.742;2023-04-16T18:37:41;98842.64;;;11.16;69.46
55191;BME280;41070;50.360;18.742;2023-04-16T18:46:51;98851.73;;;10.97;69.94
55191;BME280;41070;50.360;18.742;2023-04-16T18:49:59;98849.75;;;10.90;70.29
55191;BME280;41070;50.360;18.742;2023-04-16T18:53:06;98849.97;;;10.81;70.19
55191;BME280;41070;50.360;18.742;2023-04-16T18:56:12;98855.29;;;10.75;70.36
55191;BME280;41070;50.360;18.742;2023-04-16T18:59:19;98856.45;;;10.71;70.49
55191;BME280;41070;50.360;18.742;2023-04-16T19:02:43;98860.76;;;10.66;70.90